sensor_id;sensor_type;location;lat;lon;timestamp;temperature;humidity
22734;DHT22;11534;51.994;5.692;2023-11-19T00:00:27;12.30;99.90
22734;DHT22;11534;51.994;5.692;2023-11-19T00:02:53;12.20;99.90
22734;DHT22;11534;51.994;5.692;2023-11-19T00:05:19;12.30;99.90
22734;DHT22;11534;51.994;5.692;2023-11-19T00:07:45;12.30;99.90
22734;DHT22;11534;51.994;5.692;2023-11-19T00:10:11;12.30;99.90
22734;DHT22;11534;51.994;5.692;2023-11-19T00:12:41;12.30;99.90
22734;DHT22;11534;51.994;5.692;2023-11-19T00:15:08;12.30;99.90
22734;DHT22;11534;51.994;5.692;2023-11-19T00:17:37;12.40;99.90
22734;DHT22;11534;51.994;5.692;2023-11-19T00:20:05;12.40;99.90
22734;DHT22;11534;51.994;5.692;2023-11-19T00:22:31;12.30;99.90
22734;DHT22;11534;51.994;5.692;2023-11-19T00:24:57;12.40;99.90
22734;DHT22;11534;51.994;5.692;2023-11-19T00:27:22;12.40;99.90
22734;DHT22;11534;51.994;5.692;2023-11-19T00:29:48;12.40;99.90
22734;DHT22;11534;51.994;5.692;2023-11-19T00:32:14;12.30;99.90
22734;DHT22;11534;51.994;5.692;2023-11-19T00:34:44;12.40;99.90
22734;DHT22;11534;51.994;5.692;2023-11-19T00:37:10;12.40;99.90
22734;DHT22;11534;51.994;5.692;2023-11-19T00:39:35;12.40;99.90
22734;DHT22;11534;51.994;5.692;2023-11-19T00:42:01;12.40;99.90
22734;DHT22;11534;51.994;5.692;2023-11-19T00:44:27;12.40;99.90
22734;DHT22;11534;51.994;5.692;2023-11-19T00:46:53;12.40;99.90
22734;DHT22;11534;51.994;5.692;2023-11-19T00:49:19;12.40;99.90
22734;DHT22;11534;51.994;5.692;2023-11-19T00:51:45;12.40;99.90
22734;DHT22;11534;51.994;5.692;2023-11-19T00:54:11;12.40;99.90
22734;DHT22;11534;51.994;5.692;2023-11-19T00:56:36;12.40;99.90
22734;DHT22;11534;51.994;5.692;2023-11-19T00:59:02;12.40;99.90
22734;DHT22;11534;51.994;5.692;2023-11-19T01:01:29;12.40;99.90
22734;DHT22;11534;51.994;5.692;2023-11-19T01:03:55;12.40;99.90
22734;DHT22;11534;51.994;5.692;2023-11-19T01:06:32;12.40;99.90
22734;DHT22;11534;51.994;5.692;2023-11-19T01:08:58;12.40;99.90
22734;DHT22;11534;51.994;5.692;2023-11-19T01:11:24;12.40;99.90
22734;DHT22;11534;51.994;5.692;2023-11-19T01:13:51;12.40;99.90
22734;DHT22;11534;51.994;5.692;2023-11-19T01:16:17;12.40;99.90
22734;DHT22;11534;51.994;5.692;2023-11-19T01:18:44;12.50;99.90
22734;DHT22;11534;51.994;5.692;2023-11-19T01:21:12;12.40;99.90
22734;DHT22;11534;51.994;5.692;2023-11-19T01:23:38;12.40;99.90
22734;DHT22;11534;51.994;5.692;2023-11-19T01:26:04;12.40;99.90
22734;DHT22;11534;51.994;5.692;2023-11-19T01:28:31;12.50;99.90
22734;DHT22;11534;51.994;5.692;2023-11-19T01:30:56;12.50;99.90
22734;DHT22;11534;51.994;5.692;2023-11-19T01:33:22;12.50;99.90
22734;DHT22;11534;51.994;5.692;2023-11-19T01:35:48;12.40;99.90
22734;DHT22;11534;51.994;5.692;2023-11-19T01:38:13;12.40;99.90
22734;DHT22;11534;51.994;5.692;2023-11-19T01:40:40;12.50;99.90
22734;DHT22;11534;51.994;5.692;2023-11-19T01:43:06;12.50;99.90
22734;DHT22;11534;51.994;5.692;2023-11-19T01:45:33;12.40;99.90
22734;DHT22;11534;51.994;5.692;2023-11-19T01:48:02;12.50;99.90
22734;DHT22;11534;51.994;5.692;2023-11-19T01:50:30;12.50;99.90
22734;DHT22;11534;51.994;5.692;2023-11-19T01:52:57;12.40;99.90
22734;DHT22;11534;51.994;5.692;2023-11-19T01:55:24;12.50;99.90
22734;DHT22;11534;51.994;5.692;2023-11-19T01:57:51;12.50;99.90
22734;DHT22;11534;51.994;5.692;2023-11-19T02:00:18;12.50;99.90
22734;DHT22;11534;51.994;5.692;2023-11-19T02:02:46;12.50;99.90
22734;DHT22;11534;51.994;5.692;2023-11-19T02:05:12;12.50;99.90
22734;DHT22;11534;51.994;5.692;2023-11-19T02:07:38;12.60;99.90
22734;DHT22;11534;51.994;5.692;2023-11-19T02:10:05;12.50;99.90
22734;DHT22;11534;51.994;5.692;2023-11-19T02:12:31;12.50;99.90
22734;DHT22;11534;51.994;5.692;2023-11-19T02:15:02;12.40;99.90
22734;DHT22;11534;51.994;5.692;2023-11-19T02:17:31;12.50;99.90
22734;DHT22;11534;51.994;5.692;2023-11-19T02:19:57;12.40;99.90
22734;DHT22;11534;51.994;5.692;2023-11-19T02:22:24;12.40;99.90
22734;DHT22;11534;51.994;5.692;2023-11-19T02:24:56;12.40;99.90
22734;DHT22;11534;51.994;5.692;2023-11-19T02:29:57;12.40;99.90
22734;DHT22;11534;51.994;5.692;2023-11-19T02:32:23;12.40;99.90
22734;DHT22;11534;51.994;5.692;2023-11-19T02:34:52;12.40;99.90
22734;DHT22;11534;51.994;5.692;2023-11-19T02:37:18;12.30;99.90
22734;DHT22;11534;51.994;5.692;2023-11-19T02:39:44;12.30;99.90
22734;DHT22;11534;51.994;5.692;2023-11-19T02:42:10;12.30;99.90
22734;DHT22;11534;51.994;5.692;2023-11-19T02:44:36;12.30;99.90
22734;DHT22;11534;51.994;5.692;2023-11-19T02:47:02;12.30;99.90
22734;DHT22;11534;51.994;5.692;2023-11-19T02:49:28;12.30;99.90
22734;DHT22;11534;51.994;5.692;2023-11-19T02:51:54;12.30;99.90
22734;DHT22;11534;51.994;5.692;2023-11-19T02:54:19;12.20;99.90
22734;DHT22;11534;51.994;5.692;2023-11-19T02:56:46;12.20;99.90
22734;DHT22;11534;51.994;5.692;2023-11-19T02:59:20;12.10;99.90
22734;DHT22;11534;51.994;5.692;2023-11-19T03:01:53;12.10;99.90
22734;DHT22;11534;51.994;5.692;2023-11-19T03:04:19;12.10;99.90
22734;DHT22;11534;51.994;5.692;2023-11-19T03:06:46;12.10;99.90
22734;DHT22;11534;51.994;5.692;2023-11-19T03:09:12;12.10;99.90
22734;DHT22;11534;51.994;5.692;2023-11-19T03:11:38;12.00;99.90
22734;DHT22;11534;51.994;5.692;2023-11-19T03:14:04;12.00;99.90
22734;DHT22;11534;51.994;5.692;2023-11-19T03:16:30;12.00;99.90
22734;DHT22;11534;51.994;5.692;2023-11-19T03:18:56;11.90;99.90
22734;DHT22;11534;51.994;5.692;2023-11-19T03:21:31;11.90;99.90
22734;DHT22;11534;51.994;5.692;2023-11-19T03:23:58;11.90;99.90
22734;DHT22;11534;51.994;5.692;2023-11-19T03:26:27;11.90;99.90
22734;DHT22;11534;51.994;5.692;2023-11-19T03:28:53;11.90;99.90
22734;DHT22;11534;51.994;5.692;2023-11-19T03:31:19;11.90;99.90
22734;DHT22;11534;51.994;5.692;2023-11-19T03:33:46;11.80;99.90
22734;DHT22;11534;51.994;5.692;2023-11-19T03:36:12;11.80;99.90
22734;DHT22;11534;51.994;5.692;2023-11-19T03:38:38;11.70;99.90
22734;DHT22;11534;51.994;5.692;2023-11-19T03:41:14;11.70;99.90
22734;DHT22;11534;51.994;5.692;2023-11-19T03:43:40;11.70;99.90
22734;DHT22;11534;51.994;5.692;2023-11-19T03:46:17;11.70;99.90
22734;DHT22;11534;51.994;5.692;2023-11-19T03:48:43;11.60;99.90
22734;DHT22;11534;51.994;5.692;2023-11-19T03:51:09;11.60;99.90
22734;DHT22;11534;51.994;5.692;2023-11-19T03:53:35;11.50;99.90
22734;DHT22;11534;51.994;5.692;2023-11-19T03:56:01;11.50;99.90
22734;DHT22;11534;51.994;5.692;2023-11-19T03:58:26;11.40;99.90
22734;DHT22;11534;51.994;5.692;2023-11-19T04:00:52;11.40;99.90
22734;DHT22;11534;51.994;5.692;2023-11-19T04:03:18;11.40;99.90
22734;DHT22;11534;51.994;5.692;2023-11-19T04:05:45;11.40;99.90
22734;DHT22;11534;51.994;5.692;2023-11-19T04:08:10;11.40;99.90
22734;DHT22;11534;51.994;5.692;2023-11-19T04:10:36;11.30;99.90
22734;DHT22;11534;51.994;5.692;2023-11-19T04:13:01;11.30;99.90
22734;DHT22;11534;51.994;5.692;2023-11-19T04:15:27;11.30;99.90
22734;DHT22;11534;51.994;5.692;2023-11-19T04:17:53;11.30;99.90
22734;DHT22;11534;51.994;5.692;2023-11-19T04:20:19;11.30;99.90
22734;DHT22;11534;51.994;5.692;2023-11-19T04:22:44;11.20;99.90
22734;DHT22;11534;51.994;5.692;2023-11-19T04:25:10;11.10;99.90
22734;DHT22;11534;51.994;5.692;2023-11-19T04:27:36;11.20;99.90
22734;DHT22;11534;51.994;5.692;2023-11-19T04:30:02;11.20;99.90
22734;DHT22;11534;51.994;5.692;2023-11-19T04:32:29;11.20;99.90
22734;DHT22;11534;51.994;5.692;2023-11-19T04:34:54;11.10;99.90
22734;DHT22;11534;51.994;5.692;2023-11-19T04:37:20;11.10;99.90
22734;DHT22;11534;51.994;5.692;2023-11-19T04:39:46;11.10;99.90
22734;DHT22;11534;51.994;5.692;2023-11-19T04:42:11;11.10;99.90
22734;DHT22;11534;51.994;5.692;2023-11-19T04:44:38;11.10;99.90
22734;DHT22;11534;51.994;5.692;2023-11-19T04:47:03;11.00;99.90
22734;DHT22;11534;51.994;5.692;2023-11-19T04:49:29;11.00;99.90
22734;DHT22;11534;51.994;5.692;2023-11-19T04:51:55;11.00;99.90
22734;DHT22;11534;51.994;5.692;2023-11-19T04:54:21;11.00;99.90
22734;DHT22;11534;51.994;5.692;2023-11-19T04:56:47;11.00;99.90
22734;DHT22;11534;51.994;5.692;2023-11-19T04:59:13;10.90;99.90
22734;DHT22;11534;51.994;5.692;2023-11-19T05:01:39;11.00;99.90
22734;DHT22;11534;51.994;5.692;2023-11-19T05:04:04;10.90;99.90
22734;DHT22;11534;51.994;5.692;2023-11-19T05:06:31;11.00;99.90
22734;DHT22;11534;51.994;5.692;2023-11-19T05:09:00;10.90;99.90
22734;DHT22;11534;51.994;5.692;2023-11-19T05:11:33;10.90;99.90
22734;DHT22;11534;51.994;5.692;2023-11-19T05:13:59;10.80;99.90
22734;DHT22;11534;51.994;5.692;2023-11-19T05:16:25;10.80;99.90
22734;DHT22;11534;51.994;5.692;2023-11-19T05:18:51;10.80;99.90
22734;DHT22;11534;51.994;5.692;2023-11-19T05:21:17;10.80;99.90
22734;DHT22;11534;51.994;5.692;2023-11-19T05:23:43;10.80;99.90
22734;DHT22;11534;51.994;5.692;2023-11-19T05:26:09;10.80;99.90
22734;DHT22;11534;51.994;5.692;2023-11-19T05:28:38;10.80;99.90
22734;DHT22;11534;51.994;5.692;2023-11-19T05:31:05;10.90;99.90
22734;DHT22;11534;51.994;5.692;2023-11-19T05:33:31;10.90;99.90
22734;DHT22;11534;51.994;5.692;2023-11-19T05:35:57;11.00;99.90
22734;DHT22;11534;51.994;5.692;2023-11-19T05:38:22;11.00;99.90
22734;DHT22;11534;51.994;5.692;2023-11-19T05:40:48;11.00;99.90
22734;DHT22;11534;51.994;5.692;2023-11-19T05:43:15;11.00;99.90
22734;DHT22;11534;51.994;5.692;2023-11-19T05:45:42;11.00;99.90
22734;DHT22;11534;51.994;5.692;2023-11-19T05:48:08;11.00;99.90
22734;DHT22;11534;51.994;5.692;2023-11-19T05:50:35;11.00;99.90
22734;DHT22;11534;51.994;5.692;2023-11-19T05:53:00;11.10;99.90
22734;DHT22;11534;51.994;5.692;2023-11-19T05:55:26;11.00;99.90
22734;DHT22;11534;51.994;5.692;2023-11-19T05:57:54;11.00;99.90
22734;DHT22;11534;51.994;5.692;2023-11-19T06:00:19;11.10;99.90
22734;DHT22;11534;51.994;5.692;2023-11-19T06:02:45;11.10;99.90
22734;DHT22;11534;51.994;5.692;2023-11-19T06:05:11;11.10;99.90
22734;DHT22;11534;51.994;5.692;2023-11-19T06:07:37;11.00;99.90
22734;DHT22;11534;51.994;5.692;2023-11-19T06:10:04;11.00;99.90
22734;DHT22;11534;51.994;5.692;2023-11-19T06:12:33;11.00;99.90
22734;DHT22;11534;51.994;5.692;2023-11-19T06:15:00;11.00;99.90
22734;DHT22;11534;51.994;5.692;2023-11-19T06:17:25;10.90;99.90
22734;DHT22;11534;51.994;5.692;2023-11-19T06:19:51;10.90;99.90
22734;DHT22;11534;51.994;5.692;2023-11-19T06:22:17;10.90;99.90
22734;DHT22;11534;51.994;5.692;2023-11-19T06:24:43;11.00;99.90
22734;DHT22;11534;51.994;5.692;2023-11-19T06:27:08;10.90;99.90
22734;DHT22;11534;51.994;5.692;2023-11-19T06:29:34;10.90;99.90
22734;DHT22;11534;51.994;5.692;2023-11-19T06:32:00;10.90;99.90
22734;DHT22;11534;51.994;5.692;2023-11-19T06:34:26;10.90;99.90
22734;DHT22;11534;51.994;5.692;2023-11-19T06:36:51;10.90;99.90
22734;DHT22;11534;51.994;5.692;2023-11-19T06:39:19;10.90;99.90
22734;DHT22;11534;51.994;5.692;2023-11-19T06:41:46;10.90;99.90
22734;DHT22;11534;51.994;5.692;2023-11-19T06:44:12;10.90;99.90
22734;DHT22;11534;51.994;5.692;2023-11-19T06:46:37;10.90;99.90
22734;DHT22;11534;51.994;5.692;2023-11-19T06:49:03;10.90;99.90
22734;DHT22;11534;51.994;5.692;2023-11-19T06:51:29;10.90;99.90
22734;DHT22;11534;51.994;5.692;2023-11-19T06:53:55;10.90;99.90
22734;DHT22;11534;51.994;5.692;2023-11-19T06:56:22;10.90;99.90
22734;DHT22;11534;51.994;5.692;2023-11-19T06:58:48;11.00;99.90
22734;DHT22;11534;51.994;5.692;2023-11-19T07:01:18;10.90;99.90
22734;DHT22;11534;51.994;5.692;2023-11-19T07:07:25;10.90;99.90
22734;DHT22;11534;51.994;5.692;2023-11-19T07:09:51;10.90;99.90
22734;DHT22;11534;51.994;5.692;2023-11-19T07:12:17;10.80;99.90
22734;DHT22;11534;51.994;5.692;2023-11-19T07:14:43;10.90;99.90
22734;DHT22;11534;51.994;5.692;2023-11-19T07:17:08;10.90;99.90
22734;DHT22;11534;51.994;5.692;2023-11-19T07:19:35;10.90;99.90
22734;DHT22;11534;51.994;5.692;2023-11-19T07:22:02;10.90;99.90
22734;DHT22;11534;51.994;5.692;2023-11-19T07:24:27;11.00;99.90
22734;DHT22;11534;51.994;5.692;2023-11-19T07:26:56;10.90;99.90
22734;DHT22;11534;51.994;5.692;2023-11-19T07:29:22;10.90;99.90
22734;DHT22;11534;51.994;5.692;2023-11-19T07:31:51;10.80;99.90
22734;DHT22;11534;51.994;5.692;2023-11-19T07:34:17;10.80;99.90
22734;DHT22;11534;51.994;5.692;2023-11-19T07:36:42;10.80;99.90
22734;DHT22;11534;51.994;5.692;2023-11-19T07:39:08;10.90;99.90
22734;DHT22;11534;51.994;5.692;2023-11-19T07:41:34;10.90;99.90
22734;DHT22;11534;51.994;5.692;2023-11-19T07:44:00;10.90;99.90
22734;DHT22;11534;51.994;5.692;2023-11-19T07:46:26;10.90;99.90
22734;DHT22;11534;51.994;5.692;2023-11-19T07:48:52;11.00;99.90
22734;DHT22;11534;51.994;5.692;2023-11-19T07:51:18;11.00;99.90
22734;DHT22;11534;51.994;5.692;2023-11-19T07:53:43;11.10;99.90
22734;DHT22;11534;51.994;5.692;2023-11-19T07:56:09;11.10;99.90
22734;DHT22;11534;51.994;5.692;2023-11-19T07:58:36;11.20;99.90
22734;DHT22;11534;51.994;5.692;2023-11-19T08:01:02;11.20;99.90
22734;DHT22;11534;51.994;5.692;2023-11-19T08:03:28;11.30;99.90
22734;DHT22;11534;51.994;5.692;2023-11-19T08:05:58;11.30;99.90
22734;DHT22;11534;51.994;5.692;2023-11-19T08:08:23;11.40;99.90
22734;DHT22;11534;51.994;5.692;2023-11-19T08:10:49;11.40;99.90
22734;DHT22;11534;51.994;5.692;2023-11-19T08:13:19;11.50;99.90
22734;DHT22;11534;51.994;5.692;2023-11-19T08:15:45;11.40;99.90
22734;DHT22;11534;51.994;5.692;2023-11-19T08:18:11;11.40;99.90
22734;DHT22;11534;51.994;5.692;2023-11-19T08:20:37;11.40;99.90
22734;DHT22;11534;51.994;5.692;2023-11-19T08:23:03;11.40;99.90
22734;DHT22;11534;51.994;5.692;2023-11-19T08:25:32;11.40;99.90
22734;DHT22;11534;51.994;5.692;2023-11-19T08:27:59;11.40;99.90
22734;DHT22;11534;51.994;5.692;2023-11-19T08:30:25;11.40;99.90
22734;DHT22;11534;51.994;5.692;2023-11-19T08:32:51;11.40;99.90
22734;DHT22;11534;51.994;5.692;2023-11-19T08:35:16;11.40;99.90
22734;DHT22;11534;51.994;5.692;2023-11-19T08:37:42;11.50;99.90
22734;DHT22;11534;51.994;5.692;2023-11-19T08:40:09;11.40;99.90
22734;DHT22;11534;51.994;5.692;2023-11-19T08:42:35;11.50;99.90
22734;DHT22;11534;51.994;5.692;2023-11-19T08:45:00;11.60;99.90
22734;DHT22;11534;51.994;5.692;2023-11-19T08:47:26;11.60;99.90
22734;DHT22;11534;51.994;5.692;2023-11-19T08:49:51;11.60;99.90
22734;DHT22;11534;51.994;5.692;2023-11-19T08:52:18;11.60;99.90
22734;DHT22;11534;51.994;5.692;2023-11-19T08:54:44;11.70;99.90
22734;DHT22;11534;51.994;5.692;2023-11-19T08:57:09;11.60;99.90
22734;DHT22;11534;51.994;5.692;2023-11-19T08:59:35;11.70;99.90
22734;DHT22;11534;51.994;5.692;2023-11-19T09:02:04;11.70;99.90
22734;DHT22;11534;51.994;5.692;2023-11-19T09:04:29;11.70;99.90
22734;DHT22;11534;51.994;5.692;2023-11-19T09:06:57;11.70;99.90
22734;DHT22;11534;51.994;5.692;2023-11-19T09:09:23;11.70;99.90
22734;DHT22;11534;51.994;5.692;2023-11-19T09:11:49;11.80;99.90
22734;DHT22;11534;51.994;5.692;2023-11-19T09:14:14;11.80;99.90
22734;DHT22;11534;51.994;5.692;2023-11-19T09:16:41;11.90;99.90
22734;DHT22;11534;51.994;5.692;2023-11-19T09:19:06;11.90;99.90
22734;DHT22;11534;51.994;5.692;2023-11-19T09:21:32;11.90;99.90
22734;DHT22;11534;51.994;5.692;2023-11-19T09:24:00;11.80;99.90
22734;DHT22;11534;51.994;5.692;2023-11-19T09:26:25;11.80;99.90
22734;DHT22;11534;51.994;5.692;2023-11-19T09:28:51;11.80;99.90
22734;DHT22;11534;51.994;5.692;2023-11-19T09:31:17;11.90;99.90
22734;DHT22;11534;51.994;5.692;2023-11-19T09:33:44;11.90;99.90
22734;DHT22;11534;51.994;5.692;2023-11-19T09:36:11;12.00;99.90
22734;DHT22;11534;51.994;5.692;2023-11-19T09:38:39;12.00;99.90
22734;DHT22;11534;51.994;5.692;2023-11-19T09:41:05;12.10;99.90
22734;DHT22;11534;51.994;5.692;2023-11-19T09:43:35;12.00;99.90
22734;DHT22;11534;51.994;5.692;2023-11-19T09:46:10;12.00;99.90
22734;DHT22;11534;51.994;5.692;2023-11-19T09:48:39;12.10;99.90
22734;DHT22;11534;51.994;5.692;2023-11-19T09:51:09;12.00;99.90
22734;DHT22;11534;51.994;5.692;2023-11-19T09:53:36;12.10;99.90
22734;DHT22;11534;51.994;5.692;2023-11-19T09:56:04;12.10;99.90
22734;DHT22;11534;51.994;5.692;2023-11-19T09:58:31;12.20;99.90
22734;DHT22;11534;51.994;5.692;2023-11-19T10:00:57;12.20;99.90
22734;DHT22;11534;51.994;5.692;2023-11-19T10:03:33;12.30;99.90
22734;DHT22;11534;51.994;5.692;2023-11-19T10:06:01;12.20;99.90
22734;DHT22;11534;51.994;5.692;2023-11-19T10:08:27;12.30;99.90
22734;DHT22;11534;51.994;5.692;2023-11-19T10:10:53;12.40;99.90
22734;DHT22;11534;51.994;5.692;2023-11-19T10:13:19;12.40;99.90
22734;DHT22;11534;51.994;5.692;2023-11-19T10:15:45;12.40;99.90
22734;DHT22;11534;51.994;5.692;2023-11-19T10:18:11;12.40;99.90
22734;DHT22;11534;51.994;5.692;2023-11-19T10:20:42;12.40;99.90
22734;DHT22;11534;51.994;5.692;2023-11-19T10:23:09;12.40;99.90
22734;DHT22;11534;51.994;5.692;2023-11-19T10:25:36;12.40;99.90
22734;DHT22;11534;51.994;5.692;2023-11-19T10:28:02;12.40;99.90
22734;DHT22;11534;51.994;5.692;2023-11-19T10:30:30;12.40;99.90
22734;DHT22;11534;51.994;5.692;2023-11-19T10:33:07;12.40;99.90
22734;DHT22;11534;51.994;5.692;2023-11-19T10:35:55;12.40;99.90
22734;DHT22;11534;51.994;5.692;2023-11-19T10:38:25;12.60;99.90
22734;DHT22;11534;51.994;5.692;2023-11-19T10:40:53;12.70;99.90
22734;DHT22;11534;51.994;5.692;2023-11-19T10:43:20;12.80;99.90
22734;DHT22;11534;51.994;5.692;2023-11-19T10:45:48;12.80;99.90
22734;DHT22;11534;51.994;5.692;2023-11-19T10:48:17;12.90;99.90
22734;DHT22;11534;51.994;5.692;2023-11-19T11:01:21;13.40;99.90
22734;DHT22;11534;51.994;5.692;2023-11-19T11:03:51;13.40;99.90
22734;DHT22;11534;51.994;5.692;2023-11-19T11:06:19;13.40;99.90
22734;DHT22;11534;51.994;5.692;2023-11-19T11:08:48;13.40;99.90
22734;DHT22;11534;51.994;5.692;2023-11-19T11:11:16;13.50;99.90
22734;DHT22;11534;51.994;5.692;2023-11-19T11:13:50;13.40;99.90
22734;DHT22;11534;51.994;5.692;2023-11-19T11:16:19;13.30;99.90
22734;DHT22;11534;51.994;5.692;2023-11-19T11:18:47;13.30;99.90
22734;DHT22;11534;51.994;5.692;2023-11-19T11:21:17;13.20;99.90
22734;DHT22;11534;51.994;5.692;2023-11-19T11:27:04;13.10;99.90
22734;DHT22;11534;51.994;5.692;2023-11-19T11:38:23;13.20;99.90
22734;DHT22;11534;51.994;5.692;2023-11-19T11:41:21;13.10;99.90
22734;DHT22;11534;51.994;5.692;2023-11-19T11:43:52;13.00;99.90
22734;DHT22;11534;51.994;5.692;2023-11-19T11:46:53;13.00;99.90
22734;DHT22;11534;51.994;5.692;2023-11-19T11:49:25;13.00;99.90
22734;DHT22;11534;51.994;5.692;2023-11-19T11:52:08;13.10;99.90
22734;DHT22;11534;51.994;5.692;2023-11-19T11:54:41;13.20;99.90
22734;DHT22;11534;51.994;5.692;2023-11-19T11:57:13;13.30;99.90
22734;DHT22;11534;51.994;5.692;2023-11-19T11:59:43;13.40;99.90
22734;DHT22;11534;51.994;5.692;2023-11-19T12:02:19;13.50;99.90
22734;DHT22;11534;51.994;5.692;2023-11-19T12:04:51;13.50;99.90
22734;DHT22;11534;51.994;5.692;2023-11-19T12:07:24;13.30;99.90
22734;DHT22;11534;51.994;5.692;2023-11-19T12:10:15;13.30;99.90
22734;DHT22;11534;51.994;5.692;2023-11-19T12:12:41;13.20;99.90
22734;DHT22;11534;51.994;5.692;2023-11-19T12:15:08;13.10;99.90
22734;DHT22;11534;51.994;5.692;2023-11-19T12:17:50;13.10;99.90
22734;DHT22;11534;51.994;5.692;2023-11-19T12:20:18;13.20;99.90
22734;DHT22;11534;51.994;5.692;2023-11-19T12:22:45;13.30;99.90
22734;DHT22;11534;51.994;5.692;2023-11-19T12:25:12;13.40;99.90
22734;DHT22;11534;51.994;5.692;2023-11-19T12:27:56;13.50;99.90
22734;DHT22;11534;51.994;5.692;2023-11-19T12:30:26;13.40;99.90
22734;DHT22;11534;51.994;5.692;2023-11-19T12:32:52;13.40;99.90
22734;DHT22;11534;51.994;5.692;2023-11-19T12:35:22;13.50;99.90
22734;DHT22;11534;51.994;5.692;2023-11-19T12:37:50;13.40;99.90
22734;DHT22;11534;51.994;5.692;2023-11-19T12:40:23;13.40;99.90
22734;DHT22;11534;51.994;5.692;2023-11-19T12:42:51;13.40;99.90
22734;DHT22;11534;51.994;5.692;2023-11-19T12:45:18;13.40;99.90
22734;DHT22;11534;51.994;5.692;2023-11-19T12:47:46;13.40;99.90
22734;DHT22;11534;51.994;5.692;2023-11-19T12:50:16;13.40;99.90
22734;DHT22;11534;51.994;5.692;2023-11-19T12:52:58;13.30;99.90
22734;DHT22;11534;51.994;5.692;2023-11-19T12:55:28;13.30;99.90
22734;DHT22;11534;51.994;5.692;2023-11-19T12:57:55;13.30;99.90
22734;DHT22;11534;51.994;5.692;2023-11-19T13:00:25;13.30;99.90
22734;DHT22;11534;51.994;5.692;2023-11-19T13:02:55;13.30;99.90
22734;DHT22;11534;51.994;5.692;2023-11-19T13:08:12;13.30;99.90
22734;DHT22;11534;51.994;5.692;2023-11-19T13:10:53;13.30;99.90
22734;DHT22;11534;51.994;5.692;2023-11-19T13:13:19;13.30;99.90
22734;DHT22;11534;51.994;5.692;2023-11-19T13:15:46;13.30;99.90
22734;DHT22;11534;51.994;5.692;2023-11-19T13:18:12;13.20;99.90
22734;DHT22;11534;51.994;5.692;2023-11-19T13:20:39;13.20;99.90
22734;DHT22;11534;51.994;5.692;2023-11-19T13:23:06;13.10;99.90
22734;DHT22;11534;51.994;5.692;2023-11-19T13:25:35;13.10;99.90
22734;DHT22;11534;51.994;5.692;2023-11-19T13:28:01;13.00;99.90
22734;DHT22;11534;51.994;5.692;2023-11-19T13:30:27;13.00;99.90
22734;DHT22;11534;51.994;5.692;2023-11-19T13:32:54;13.00;99.90
22734;DHT22;11534;51.994;5.692;2023-11-19T13:35:20;13.10;99.90
22734;DHT22;11534;51.994;5.692;2023-11-19T13:37:47;13.10;99.90
22734;DHT22;11534;51.994;5.692;2023-11-19T13:40:13;13.10;99.90
22734;DHT22;11534;51.994;5.692;2023-11-19T13:42:45;13.10;99.90
22734;DHT22;11534;51.994;5.692;2023-11-19T13:45:12;13.10;99.90
22734;DHT22;11534;51.994;5.692;2023-11-19T13:47:39;13.10;99.90
22734;DHT22;11534;51.994;5.692;2023-11-19T13:50:12;13.10;99.90
22734;DHT22;11534;51.994;5.692;2023-11-19T13:52:39;13.10;99.90
22734;DHT22;11534;51.994;5.692;2023-11-19T13:55:08;13.00;99.90
22734;DHT22;11534;51.994;5.692;2023-11-19T13:57:38;13.00;99.90
22734;DHT22;11534;51.994;5.692;2023-11-19T14:07:48;12.90;99.90
22734;DHT22;11534;51.994;5.692;2023-11-19T14:10:14;12.90;99.90
22734;DHT22;11534;51.994;5.692;2023-11-19T14:12:41;12.80;99.90
22734;DHT22;11534;51.994;5.692;2023-11-19T14:15:08;12.80;99.90
22734;DHT22;11534;51.994;5.692;2023-11-19T14:17:38;12.90;99.90
22734;DHT22;11534;51.994;5.692;2023-11-19T14:20:04;12.80;99.90
22734;DHT22;11534;51.994;5.692;2023-11-19T14:22:41;12.90;99.90
22734;DHT22;11534;51.994;5.692;2023-11-19T14:25:08;12.90;99.90
22734;DHT22;11534;51.994;5.692;2023-11-19T14:30:11;12.80;99.90
22734;DHT22;11534;51.994;5.692;2023-11-19T14:32:39;12.80;99.90
22734;DHT22;11534;51.994;5.692;2023-11-19T14:35:06;12.70;99.90
22734;DHT22;11534;51.994;5.692;2023-11-19T15:03:23;12.10;99.90
22734;DHT22;11534;51.994;5.692;2023-11-19T15:05:49;12.10;99.90
22734;DHT22;11534;51.994;5.692;2023-11-19T15:08:16;12.10;99.90
22734;DHT22;11534;51.994;5.692;2023-11-19T15:10:42;12.10;99.90
22734;DHT22;11534;51.994;5.692;2023-11-19T15:13:08;12.00;99.90
22734;DHT22;11534;51.994;5.692;2023-11-19T15:15:34;12.10;99.90
22734;DHT22;11534;51.994;5.692;2023-11-19T15:18:00;12.10;99.90
22734;DHT22;11534;51.994;5.692;2023-11-19T15:20:26;12.10;99.90
22734;DHT22;11534;51.994;5.692;2023-11-19T15:22:55;12.00;99.90
22734;DHT22;11534;51.994;5.692;2023-11-19T15:25:21;12.10;99.90
22734;DHT22;11534;51.994;5.692;2023-11-19T15:27:48;12.10;99.90
22734;DHT22;11534;51.994;5.692;2023-11-19T15:30:14;12.10;99.90
22734;DHT22;11534;51.994;5.692;2023-11-19T15:32:39;12.10;99.90
22734;DHT22;11534;51.994;5.692;2023-11-19T15:35:07;12.20;99.90
22734;DHT22;11534;51.994;5.692;2023-11-19T15:37:32;12.10;99.90
22734;DHT22;11534;51.994;5.692;2023-11-19T15:39:58;12.10;99.90
22734;DHT22;11534;51.994;5.692;2023-11-19T15:42:24;12.10;99.90
22734;DHT22;11534;51.994;5.692;2023-11-19T15:44:50;12.10;99.90
22734;DHT22;11534;51.994;5.692;2023-11-19T15:47:16;12.10;99.90
22734;DHT22;11534;51.994;5.692;2023-11-19T15:49:41;12.10;99.90
22734;DHT22;11534;51.994;5.692;2023-11-19T15:52:07;12.10;99.90
22734;DHT22;11534;51.994;5.692;2023-11-19T15:54:33;12.10;99.90
22734;DHT22;11534;51.994;5.692;2023-11-19T15:56:59;12.10;99.90
22734;DHT22;11534;51.994;5.692;2023-11-19T15:59:26;12.00;99.90
22734;DHT22;11534;51.994;5.692;2023-11-19T16:01:52;12.00;99.90
22734;DHT22;11534;51.994;5.692;2023-11-19T16:04:17;12.00;99.90
22734;DHT22;11534;51.994;5.692;2023-11-19T16:06:46;12.00;99.90
22734;DHT22;11534;51.994;5.692;2023-11-19T16:09:12;12.00;99.90
22734;DHT22;11534;51.994;5.692;2023-11-19T16:11:41;12.00;99.90
22734;DHT22;11534;51.994;5.692;2023-11-19T16:14:10;12.00;99.90
22734;DHT22;11534;51.994;5.692;2023-11-19T16:16:36;11.90;99.90
22734;DHT22;11534;51.994;5.692;2023-11-19T16:19:02;11.90;99.90
22734;DHT22;11534;51.994;5.692;2023-11-19T16:21:29;11.90;99.90
22734;DHT22;11534;51.994;5.692;2023-11-19T16:23:55;11.90;99.90
22734;DHT22;11534;51.994;5.692;2023-11-19T16:26:21;11.90;99.90
22734;DHT22;11534;51.994;5.692;2023-11-19T16:28:46;11.90;99.90
22734;DHT22;11534;51.994;5.692;2023-11-19T16:31:12;11.90;99.90
22734;DHT22;11534;51.994;5.692;2023-11-19T16:33:38;11.90;99.90
22734;DHT22;11534;51.994;5.692;2023-11-19T16:36:04;11.90;99.90
22734;DHT22;11534;51.994;5.692;2023-11-19T16:38:31;11.80;99.90